Flight Track Log - Related Links

Times and Time Zones

All times are in EDT time to prevent confusion due to time zone crossing. See the SKW5564 flight status page for this flight to view local times or setup timezone preferences in your user account.

Time Position Orientation Groundspeed Altitude Reporting Facility
EDT Latitude Longitude Course Direction KTS MPH feet Rate Location/Type
Thu 11:59:00 PM 40.3341 -104.4335 21° North  Level Estimated
Fri 12:00:00 AM 40.4521 -104.3730 21° North  Level Estimated
Fri 12:01:00 AM 40.5701 -104.3124 21° North  Level Estimated
Fri 12:02:00 AM 40.6881 -104.2515 21° North  Level Estimated
Fri 12:03:00 AM 40.8060 -104.1904 21° North  Level Estimated
Fri 12:04:00 AM 40.9239 -104.1291 21° North  Level Estimated
Fri 12:05:00 AM 41.0418 -104.0676 21° North  Level Estimated
Fri 12:06:00 AM 41.1596 -104.0059 22° Northeast  Level Estimated
Fri 12:07:00 AM 41.2774 -103.9439 22° Northeast  Level Estimated
Fri 12:08:00 AM 41.3952 -103.8817 22° Northeast  Level Estimated
Fri 12:09:00 AM 41.5129 -103.8193 22° Northeast  Level Estimated
Fri 12:10:00 AM 41.6306 -103.7567 22° Northeast  Level Estimated
Fri 12:11:00 AM 41.7483 -103.6938 22° Northeast  Level Estimated
Fri 12:12:00 AM 41.8659 -103.6307 22° Northeast  Level Estimated
Fri 12:13:00 AM 41.9835 -103.5673 22° Northeast  Level Estimated
Fri 12:14:00 AM 42.1011 -103.5038 22° Northeast  Level Estimated
Fri 12:15:00 AM 42.2186 -103.4400 22° Northeast  Level Estimated
Fri 12:16:00 AM 42.3361 -103.3759 22° Northeast  Level Estimated
Fri 12:17:00 AM 42.4536 -103.3116 22° Northeast  Level Estimated
Fri 12:18:00 AM 42.5710 -103.2471 22° Northeast  Level Estimated
Fri 12:19:00 AM 42.6884 -103.1823 22° Northeast  Level Estimated
Fri 12:20:00 AM 42.8057 -103.1173 22° Northeast  Level Estimated
Fri 12:21:00 AM 42.9230 -103.0521 22° Northeast  Level Estimated
Fri 12:22:00 AM 43.0403 -102.9865 22° Northeast  Level Estimated
Fri 12:23:00 AM 43.1576 -102.9208 22° Northeast  Level Estimated
Fri 12:24:00 AM 43.2747 -102.8548 22° Northeast  Level Estimated
Fri 12:25:00 AM 43.3919 -102.7885 22° Northeast  Level Estimated
Fri 12:26:00 AM 43.5090 -102.7220 22° Northeast  Level Estimated
Fri 12:27:00 AM 43.6261 -102.6552 22° Northeast  Level Estimated
Fri 12:28:00 AM 43.7431 -102.5882 22° Northeast  Level Estimated
Fri 12:29:00 AM 43.8601 -102.5208 23° Northeast  Level Estimated
Fri 12:30:00 AM 43.9771 -102.4533 23° Northeast  Level Estimated
Fri 12:31:00 AM 44.0940 -102.3854 23° Northeast  Level Estimated
Fri 12:32:00 AM 44.2109 -102.3173 23° Northeast  Level Estimated
Fri 12:33:00 AM 44.3278 -102.2489 23° Northeast  Level Estimated
Fri 12:34:00 AM 44.4445 -102.1803 23° Northeast  Level Estimated
Fri 12:35:00 AM 44.5613 -102.1114 23° Northeast  Level Estimated
Fri 12:36:00 AM 44.6780 -102.0422 23° Northeast  Level Estimated
Fri 12:37:00 AM 44.7947 -101.9727 23° Northeast  Level Estimated
Fri 12:38:00 AM 44.9114 -101.9029 23° Northeast  Level Estimated
Fri 12:39:00 AM 45.0279 -101.8329 23° Northeast  Level Estimated
Fri 12:40:00 AM 45.1445 -101.7625 23° Northeast  Level Estimated
Fri 12:41:00 AM 45.2610 -101.6919 23° Northeast  Level Estimated
Fri 12:42:00 AM 45.3775 -101.6210 23° Northeast  Level Estimated
Fri 12:43:00 AM 45.4939 -101.5498 23° Northeast  Level Estimated
Fri 12:44:00 AM 45.6102 -101.4783 23° Northeast  Level Estimated
Fri 12:45:00 AM 45.7266 -101.4065 23° Northeast  Level Estimated
Fri 12:46:00 AM 45.8429 -101.3344 23° Northeast  Level Estimated
Fri 12:47:00 AM 45.9591 -101.2620 23° Northeast  Level Estimated
Fri 12:48:00 AM 46.0753 -101.1893 23° Northeast  Level Estimated
Fri 12:49:00 AM 46.1914 -101.1163 24° Northeast  Level Estimated
Fri 12:50:00 AM 46.3075 -101.0430 24° Northeast  Level Estimated
Fri 12:51:00 AM 46.4236 -100.9693 24° Northeast  Level Estimated
Fri 12:52:00 AM 46.5396 -100.8954 24° Northeast  Level Estimated
Fri 12:53:00 AM 46.6556 -100.8211 24° Northeast  Level Estimated
Fri 12:54:00 AM 46.7715 -100.7466 24° Northeast  Level Estimated
Fri 12:55:00 AM 46.7727 -100.7458 24° Northeast  Level Estimated
Fri 12:56:00 AM 46.7727 -100.7458 North  Level Estimated
Fri 12:57:00 AM 46.7727 -100.7458 North  Level Estimated
Fri 12:58:00 AM 46.7727 -100.7458 North  Level Estimated
Fri 12:59:00 AM 46.7727 -100.7458 North  Level Estimated
Fri 01:00:00 AM 46.7727 -100.7458 North  Level Estimated
Fri 01:01:00 AM 46.7727 -100.7458 North  Level Estimated
Fri 01:02:00 AM 46.7727 -100.7458 North  Level Estimated
Fri 01:03:00 AM 46.7727 -100.7458 North  Level Estimated
Fri 01:04:00 AM 46.7727 -100.7458 North  Level Estimated
Fri 01:05:00 AM 46.7727 -100.7458 North  Level Estimated
Fri 01:06:00 AM 46.7727 -100.7458 North  Level Estimated
Fri 01:07:00 AM 46.7727 -100.7458 North  Level Estimated
Fri 01:08:00 AM 46.7727 -100.7458 North  Level Estimated
Fri 01:09:00 AM 46.7727 -100.7458 North  Level Estimated

Login

Don't have an account? Register now (free) for customized features, flight alerts, and more!